createdAt,value
2022-11-17T00:00:50.843Z,10.33
2022-11-17T00:03:19.211Z,10.70
2022-11-17T00:05:47.640Z,10.63
2022-11-17T00:08:17.652Z,11.57
2022-11-17T00:10:46.109Z,9.97
2022-11-17T00:13:32.704Z,10.90
2022-11-17T00:16:01.445Z,12.37
2022-11-17T00:18:47.165Z,10.73
2022-11-17T00:21:21.721Z,11.73
2022-11-17T00:23:51.683Z,10.30
2022-11-17T00:26:22.041Z,10.20
2022-11-17T00:28:54.940Z,12.93
2022-11-17T00:31:42.931Z,10.97
2022-11-17T00:34:16.318Z,11.73
2022-11-17T00:36:46.995Z,10.27
2022-11-17T00:39:18.682Z,10.73
2022-11-17T00:41:49.075Z,10.03
2022-11-17T00:44:18.373Z,9.77
2022-11-17T00:46:49.882Z,9.23
2022-11-17T00:49:25.510Z,10.40
2022-11-17T00:51:55.686Z,9.97
2022-11-17T00:54:29.490Z,9.97
2022-11-17T00:56:57.980Z,9.27
2022-11-17T00:59:26.547Z,10.63
2022-11-17T01:01:55.044Z,12.93
2022-11-17T01:04:23.638Z,10.77
2022-11-17T01:06:52.211Z,9.30
2022-11-17T01:09:23.687Z,10.23
2022-11-17T01:11:56.894Z,9.53
2022-11-17T01:14:30.494Z,9.30
2022-11-17T01:17:00.336Z,9.00
2022-11-17T01:19:29.720Z,9.80
2022-11-17T01:22:00.210Z,10.00
2022-11-17T01:24:28.946Z,11.17
2022-11-17T01:26:59.292Z,10.23
2022-11-17T01:29:27.894Z,9.43
2022-11-17T01:31:56.367Z,9.83
2022-11-17T01:34:32.776Z,8.87
2022-11-17T01:37:18.898Z,10.30
2022-11-17T01:39:47.566Z,10.30
2022-11-17T01:42:20.076Z,9.60
2022-11-17T01:45:04.043Z,9.53
2022-11-17T01:47:41.727Z,8.80
2022-11-17T01:50:26.456Z,10.43
2022-11-17T01:52:59.635Z,10.10
2022-11-17T01:55:34.681Z,9.60
2022-11-17T01:58:08.746Z,11.20
2022-11-17T02:00:37.135Z,9.83
2022-11-17T02:03:07.288Z,10.33
2022-11-17T02:05:45.181Z,10.37
2022-11-17T02:08:13.677Z,9.63
2022-11-17T02:10:47.110Z,8.83
2022-11-17T02:13:20.570Z,9.77
2022-11-17T02:15:49.191Z,8.93
2022-11-17T02:18:18.672Z,8.50
2022-11-17T02:21:06.388Z,9.60
2022-11-17T02:24:36.353Z,8.73
2022-11-17T02:27:55.385Z,11.83
2022-11-17T02:30:24.843Z,9.77
2022-11-17T02:33:03.998Z,9.70
2022-11-17T02:35:42.353Z,10.23
2022-11-17T02:38:26.362Z,10.20
2022-11-17T02:41:10.397Z,10.63
2022-11-17T02:44:03.136Z,9.27
2022-11-17T02:46:41.906Z,9.20
2022-11-17T02:49:18.160Z,9.47
2022-11-17T02:51:49.407Z,9.67
2022-11-17T02:54:18.791Z,8.67
2022-11-17T02:56:47.081Z,9.20
2022-11-17T02:59:21.403Z,11.20
2022-11-17T03:02:27.549Z,9.07
2022-11-17T03:05:09.753Z,9.47
2022-11-17T03:08:05.177Z,10.00
2022-11-17T03:10:45.739Z,8.67
2022-11-17T03:13:22.460Z,9.23
2022-11-17T03:16:01.943Z,9.53
2022-11-17T03:18:37.164Z,8.73
2022-11-17T03:21:12.355Z,9.30
2022-11-17T03:23:45.707Z,10.17
2022-11-17T03:26:17.980Z,7.83
2022-11-17T03:28:48.281Z,6.77
2022-11-17T03:31:19.015Z,7.67
2022-11-17T03:33:51.167Z,9.17
2022-11-17T03:36:24.217Z,8.57
2022-11-17T03:39:00.631Z,8.80
2022-11-17T03:41:33.171Z,8.17
2022-11-17T03:44:05.019Z,8.83
2022-11-17T03:46:37.039Z,8.43
2022-11-17T03:49:18.176Z,9.00
2022-11-17T03:51:46.752Z,8.33
2022-11-17T03:54:16.099Z,7.63
2022-11-17T03:56:55.484Z,7.43
2022-11-17T03:59:29.090Z,8.40
2022-11-17T04:01:59.158Z,7.73
2022-11-17T04:04:47.974Z,6.77
2022-11-17T04:07:16.365Z,7.33
2022-11-17T04:09:44.619Z,6.53
2022-11-17T04:12:30.179Z,7.67
2022-11-17T04:15:16.308Z,5.67
2022-11-17T04:17:46.021Z,6.30
2022-11-17T04:20:14.627Z,6.60
2022-11-17T04:22:43.936Z,5.27
2022-11-17T04:25:35.348Z,5.23
2022-11-17T04:28:21.551Z,6.00
2022-11-17T04:30:50.217Z,5.83
2022-11-17T04:33:20.462Z,5.83
2022-11-17T04:35:51.793Z,6.17
2022-11-17T04:38:20.305Z,5.93
2022-11-17T04:41:02.524Z,6.67
2022-11-17T04:43:30.901Z,6.80
2022-11-17T04:46:01.028Z,8.20
2022-11-17T04:48:30.888Z,6.80
2022-11-17T04:50:59.690Z,7.83
2022-11-17T04:53:27.969Z,8.10
2022-11-17T04:56:00.726Z,7.43
2022-11-17T04:58:29.199Z,8.50
2022-11-17T05:01:12.335Z,8.63
2022-11-17T05:03:47.828Z,8.70
2022-11-17T05:06:18.258Z,6.83
2022-11-17T05:08:46.950Z,6.97
2022-11-17T05:11:34.194Z,7.20
2022-11-17T05:14:03.732Z,6.30
2022-11-17T05:16:50.605Z,7.40
2022-11-17T05:19:24.391Z,5.87
2022-11-17T05:21:54.912Z,5.80
2022-11-17T05:24:23.083Z,6.13
2022-11-17T05:26:52.887Z,5.90
2022-11-17T05:29:23.373Z,5.63
2022-11-17T05:31:52.076Z,5.60
2022-11-17T05:34:21.911Z,6.17
2022-11-17T05:36:50.247Z,5.57
2022-11-17T05:39:18.541Z,5.47
2022-11-17T05:41:46.818Z,4.83
2022-11-17T05:44:15.119Z,5.27
2022-11-17T05:46:43.428Z,4.60
2022-11-17T05:49:11.876Z,4.73
2022-11-17T05:51:41.578Z,4.70
2022-11-17T05:54:10.037Z,4.07
2022-11-17T05:56:42.225Z,4.10
2022-11-17T05:59:27.342Z,4.17
2022-11-17T06:02:02.486Z,4.60
2022-11-17T06:04:31.983Z,4.70
2022-11-17T06:07:03.027Z,4.23
2022-11-17T06:09:35.452Z,4.00
2022-11-17T06:12:06.115Z,3.93
2022-11-17T06:14:35.556Z,3.70
2022-11-17T06:17:07.882Z,4.13
2022-11-17T06:19:42.529Z,3.80
2022-11-17T06:22:13.473Z,4.73
2022-11-17T06:24:43.575Z,4.33
2022-11-17T06:27:13.865Z,3.80
2022-11-17T06:29:45.479Z,3.80
2022-11-17T06:32:15.352Z,4.03
2022-11-17T06:34:49.170Z,4.10
2022-11-17T06:37:22.189Z,4.00
2022-11-17T06:39:50.779Z,3.90
2022-11-17T06:42:40.324Z,4.67
2022-11-17T06:45:10.205Z,4.37
2022-11-17T06:47:38.509Z,4.00
2022-11-17T06:50:08.225Z,4.43
2022-11-17T06:52:38.741Z,3.97
2022-11-17T06:55:08.882Z,4.10
2022-11-17T06:57:37.223Z,4.20
2022-11-17T07:00:07.988Z,4.60
2022-11-17T07:02:37.288Z,4.30
2022-11-17T07:05:06.163Z,4.20
2022-11-17T07:07:34.527Z,4.00
2022-11-17T07:10:04.397Z,4.23
2022-11-17T07:12:32.773Z,4.10
2022-11-17T07:15:01.168Z,4.50
2022-11-17T07:17:29.762Z,4.17
2022-11-17T07:19:58.300Z,3.70
2022-11-17T07:22:26.751Z,3.97
2022-11-17T07:24:55.568Z,4.80
2022-11-17T07:27:26.391Z,3.90
2022-11-17T07:29:55.114Z,4.47
2022-11-17T07:32:23.844Z,3.90
2022-11-17T07:34:52.990Z,3.90
2022-11-17T07:37:21.995Z,3.93
2022-11-17T07:39:50.590Z,4.70
2022-11-17T07:42:19.872Z,4.63
2022-11-17T07:44:50.009Z,4.00
2022-11-17T07:47:18.874Z,3.87
2022-11-17T07:49:47.768Z,4.43
2022-11-17T07:52:16.590Z,4.17
2022-11-17T07:54:45.663Z,4.00
2022-11-17T07:57:17.600Z,3.80
2022-11-17T07:59:46.604Z,3.63
2022-11-17T08:02:16.653Z,4.27
2022-11-17T08:04:46.063Z,4.30
2022-11-17T08:07:14.520Z,4.23
2022-11-17T08:09:43.265Z,3.87
2022-11-17T08:12:11.884Z,3.40
2022-11-17T08:14:40.359Z,4.10
2022-11-17T08:17:10.251Z,3.87
2022-11-17T08:19:41.279Z,4.67
2022-11-17T08:22:10.252Z,4.13
2022-11-17T08:24:39.013Z,4.00
2022-11-17T08:27:07.916Z,3.93
2022-11-17T08:29:37.138Z,3.60
2022-11-17T08:32:07.296Z,4.37
2022-11-17T08:34:37.093Z,4.17
2022-11-17T08:37:08.986Z,4.07
2022-11-17T08:39:37.893Z,4.40
2022-11-17T08:42:06.683Z,4.40
2022-11-17T08:44:35.198Z,4.33
2022-11-17T08:47:04.541Z,4.20
2022-11-17T08:49:33.504Z,4.17
2022-11-17T08:52:02.084Z,4.13
2022-11-17T08:54:32.454Z,4.13
2022-11-17T08:57:01.310Z,4.40
2022-11-17T08:59:29.839Z,4.43
2022-11-17T09:01:58.326Z,5.40
2022-11-17T09:04:27.316Z,3.93
2022-11-17T09:06:56.384Z,4.00
2022-11-17T09:09:26.053Z,3.97
2022-11-17T09:11:56.788Z,4.00
2022-11-17T09:14:25.890Z,4.33
2022-11-17T09:16:56.170Z,3.77
2022-11-17T09:19:25.287Z,3.30
2022-11-17T09:21:54.168Z,3.67
2022-11-17T09:24:24.009Z,4.50
2022-11-17T09:26:57.620Z,4.40
2022-11-17T09:29:27.492Z,4.70
2022-11-17T09:31:56.411Z,4.17
2022-11-17T09:34:25.718Z,3.03
2022-11-17T09:36:55.019Z,2.90
2022-11-17T09:39:23.679Z,3.20
2022-11-17T09:41:56.459Z,3.17
2022-11-17T09:44:39.954Z,3.63
2022-11-17T09:47:20.938Z,3.27
2022-11-17T09:49:59.196Z,4.00
